sensor_id;sensor_type;location;lat;lon;timestamp;pressure;altitude;pressure_sealevel;temperature;humidity
42633;BME280;28261;53.304;-6.284;2024-02-16T00:01:43;100108.59;;;8.64;100.00
42633;BME280;28261;53.304;-6.284;2024-02-16T00:03:46;100114.66;;;8.67;100.00
42633;BME280;28261;53.304;-6.284;2024-02-16T00:05:51;100109.53;;;8.63;100.00
42633;BME280;28261;53.304;-6.284;2024-02-16T00:07:55;100114.09;;;8.61;100.00
42633;BME280;28261;53.304;-6.284;2024-02-16T00:10:00;100110.59;;;8.61;100.00
42633;BME280;28261;53.304;-6.284;2024-02-16T00:12:04;100115.16;;;8.59;100.00
42633;BME280;28261;53.304;-6.284;2024-02-16T00:14:09;100106.41;;;8.58;100.00
42633;BME280;28261;53.304;-6.284;2024-02-16T00:16:15;100114.22;;;8.60;100.00
42633;BME280;28261;53.304;-6.284;2024-02-16T00:18:21;100120.97;;;8.64;100.00
42633;BME280;28261;53.304;-6.284;2024-02-16T00:20:25;100118.13;;;8.67;100.00
42633;BME280;28261;53.304;-6.284;2024-02-16T00:22:29;100117.06;;;8.70;100.00
42633;BME280;28261;53.304;-6.284;2024-02-16T00:24:33;100125.59;;;8.73;100.00
42633;BME280;28261;53.304;-6.284;2024-02-16T00:26:38;100129.00;;;8.75;100.00
42633;BME280;28261;53.304;-6.284;2024-02-16T00:28:43;100127.09;;;8.77;100.00
42633;BME280;28261;53.304;-6.284;2024-02-16T00:30:45;100132.28;;;8.79;100.00
42633;BME280;28261;53.304;-6.284;2024-02-16T00:32:52;100133.00;;;8.81;100.00
42633;BME280;28261;53.304;-6.284;2024-02-16T00:34:57;100126.78;;;8.82;100.00
42633;BME280;28261;53.304;-6.284;2024-02-16T00:37:02;100139.91;;;8.84;100.00
42633;BME280;28261;53.304;-6.284;2024-02-16T00:39:07;100138.84;;;8.86;100.00
42633;BME280;28261;53.304;-6.284;2024-02-16T00:41:17;100137.91;;;8.87;100.00
42633;BME280;28261;53.304;-6.284;2024-02-16T00:43:21;100137.78;;;8.89;100.00
42633;BME280;28261;53.304;-6.284;2024-02-16T00:45:25;100137.66;;;8.90;100.00
42633;BME280;28261;53.304;-6.284;2024-02-16T00:47:29;100138.72;;;8.88;100.00
42633;BME280;28261;53.304;-6.284;2024-02-16T00:49:34;100134.28;;;8.88;100.00
42633;BME280;28261;53.304;-6.284;2024-02-16T00:51:39;100143.06;;;8.89;100.00
42633;BME280;28261;53.304;-6.284;2024-02-16T00:53:43;100149.19;;;8.89;100.00
42633;BME280;28261;53.304;-6.284;2024-02-16T00:55:46;100144.84;;;8.88;100.00
42633;BME280;28261;53.304;-6.284;2024-02-16T00:57:50;100145.72;;;8.89;100.00
42633;BME280;28261;53.304;-6.284;2024-02-16T00:59:56;100142.09;;;8.90;100.00
42633;BME280;28261;53.304;-6.284;2024-02-16T01:02:01;100146.44;;;8.91;100.00
42633;BME280;28261;53.304;-6.284;2024-02-16T01:04:05;100147.19;;;8.93;100.00
42633;BME280;28261;53.304;-6.284;2024-02-16T01:06:12;100153.19;;;8.95;100.00
42633;BME280;28261;53.304;-6.284;2024-02-16T01:08:16;100145.28;;;8.95;100.00
42633;BME280;28261;53.304;-6.284;2024-02-16T01:10:20;100151.53;;;8.94;100.00
42633;BME280;28261;53.304;-6.284;2024-02-16T01:12:24;100157.75;;;8.93;100.00
42633;BME280;28261;53.304;-6.284;2024-02-16T01:14:28;100147.31;;;8.91;100.00
42633;BME280;28261;53.304;-6.284;2024-02-16T01:16:32;100151.84;;;8.89;100.00
42633;BME280;28261;53.304;-6.284;2024-02-16T01:18:36;100146.66;;;8.88;100.00
42633;BME280;28261;53.304;-6.284;2024-02-16T01:20:40;100147.59;;;8.87;100.00
42633;BME280;28261;53.304;-6.284;2024-02-16T01:22:45;100156.47;;;8.86;100.00
42633;BME280;28261;53.304;-6.284;2024-02-16T01:24:49;100154.81;;;8.85;100.00
42633;BME280;28261;53.304;-6.284;2024-02-16T01:26:52;100154.81;;;8.85;100.00
42633;BME280;28261;53.304;-6.284;2024-02-16T01:28:56;100154.16;;;8.81;100.00
42633;BME280;28261;53.304;-6.284;2024-02-16T01:31:00;100156.91;;;8.79;100.00
42633;BME280;28261;53.304;-6.284;2024-02-16T01:33:04;100155.31;;;8.77;100.00
42633;BME280;28261;53.304;-6.284;2024-02-16T01:35:08;100152.03;;;8.73;100.00
42633;BME280;28261;53.304;-6.284;2024-02-16T01:37:13;100156.50;;;8.73;100.00
42633;BME280;28261;53.304;-6.284;2024-02-16T01:39:17;100161.03;;;8.71;100.00
42633;BME280;28261;53.304;-6.284;2024-02-16T01:41:21;100166.41;;;8.69;100.00
42633;BME280;28261;53.304;-6.284;2024-02-16T01:43:24;100161.22;;;8.68;100.00
42633;BME280;28261;53.304;-6.284;2024-02-16T01:45:29;100159.63;;;8.65;100.00
42633;BME280;28261;53.304;-6.284;2024-02-16T01:47:33;100165.91;;;8.64;100.00
42633;BME280;28261;53.304;-6.284;2024-02-16T01:49:36;100154.56;;;8.62;100.00
42633;BME280;28261;53.304;-6.284;2024-02-16T01:51:41;100161.66;;;8.61;100.00
42633;BME280;28261;53.304;-6.284;2024-02-16T01:53:46;100163.44;;;8.61;100.00
42633;BME280;28261;53.304;-6.284;2024-02-16T01:55:51;100160.91;;;8.59;100.00
42633;BME280;28261;53.304;-6.284;2024-02-16T01:57:57;100162.81;;;8.57;100.00
42633;BME280;28261;53.304;-6.284;2024-02-16T02:00:01;100159.31;;;8.57;100.00
42633;BME280;28261;53.304;-6.284;2024-02-16T02:02:05;100156.69;;;8.57;100.00
42633;BME280;28261;53.304;-6.284;2024-02-16T02:04:09;100161.00;;;8.58;100.00
42633;BME280;28261;53.304;-6.284;2024-02-16T02:06:12;100165.34;;;8.59;100.00
42633;BME280;28261;53.304;-6.284;2024-02-16T02:08:16;100169.69;;;8.60;100.00
42633;BME280;28261;53.304;-6.284;2024-02-16T02:10:19;100168.72;;;8.61;100.00
42633;BME280;28261;53.304;-6.284;2024-02-16T02:12:24;100171.38;;;8.61;100.00
42633;BME280;28261;53.304;-6.284;2024-02-16T02:14:27;100178.25;;;8.63;100.00
42633;BME280;28261;53.304;-6.284;2024-02-16T02:16:31;100173.81;;;8.64;100.00
42633;BME280;28261;53.304;-6.284;2024-02-16T02:18:48;100182.59;;;8.64;100.00
42633;BME280;28261;53.304;-6.284;2024-02-16T02:20:52;100172.84;;;8.65;100.00
42633;BME280;28261;53.304;-6.284;2024-02-16T02:22:58;100175.31;;;8.68;100.00
42633;BME280;28261;53.304;-6.284;2024-02-16T02:25:01;100182.25;;;8.69;100.00
42633;BME280;28261;53.304;-6.284;2024-02-16T02:27:05;100179.44;;;8.72;100.00
42633;BME280;28261;53.304;-6.284;2024-02-16T02:29:09;100175.81;;;8.73;100.00
42633;BME280;28261;53.304;-6.284;2024-02-16T02:31:13;100187.88;;;8.77;100.00
42633;BME280;28261;53.304;-6.284;2024-02-16T02:33:16;100174.47;;;8.80;100.00
42633;BME280;28261;53.304;-6.284;2024-02-16T02:35:20;100176.06;;;8.83;100.00
42633;BME280;28261;53.304;-6.284;2024-02-16T02:37:24;100176.78;;;8.85;100.00
42633;BME280;28261;53.304;-6.284;2024-02-16T02:39:30;100175.72;;;8.88;100.00
42633;BME280;28261;53.304;-6.284;2024-02-16T02:41:33;100184.38;;;8.90;100.00
42633;BME280;28261;53.304;-6.284;2024-02-16T02:43:37;100184.31;;;8.91;100.00
42633;BME280;28261;53.304;-6.284;2024-02-16T02:45:40;100181.56;;;8.93;100.00
42633;BME280;28261;53.304;-6.284;2024-02-16T02:47:44;100190.22;;;8.95;100.00
42633;BME280;28261;53.304;-6.284;2024-02-16T02:49:48;100183.03;;;8.97;100.00
42633;BME280;28261;53.304;-6.284;2024-02-16T02:51:51;100183.88;;;8.97;100.00
42633;BME280;28261;53.304;-6.284;2024-02-16T02:53:54;100182.94;;;8.98;100.00
42633;BME280;28261;53.304;-6.284;2024-02-16T02:55:59;100185.56;;;8.98;100.00
42633;BME280;28261;53.304;-6.284;2024-02-16T02:58:02;100189.81;;;9.01;100.00
42633;BME280;28261;53.304;-6.284;2024-02-16T03:00:06;100188.84;;;9.02;100.00
42633;BME280;28261;53.304;-6.284;2024-02-16T03:02:13;100183.47;;;9.04;100.00
42633;BME280;28261;53.304;-6.284;2024-02-16T03:04:16;100195.69;;;9.05;100.00
42633;BME280;28261;53.304;-6.284;2024-02-16T03:06:20;100194.75;;;9.06;100.00
42633;BME280;28261;53.304;-6.284;2024-02-16T03:08:23;100192.00;;;9.07;100.00
42633;BME280;28261;53.304;-6.284;2024-02-16T03:10:27;100191.06;;;9.08;100.00
42633;BME280;28261;53.304;-6.284;2024-02-16T03:12:38;100193.47;;;9.11;100.00
42633;BME280;28261;53.304;-6.284;2024-02-16T03:14:41;100184.59;;;9.12;100.00
42633;BME280;28261;53.304;-6.284;2024-02-16T03:16:44;100200.47;;;9.12;100.00
42633;BME280;28261;53.304;-6.284;2024-02-16T03:18:48;100203.88;;;9.14;100.00
42633;BME280;28261;53.304;-6.284;2024-02-16T03:20:52;100204.81;;;9.13;100.00
42633;BME280;28261;53.304;-6.284;2024-02-16T03:22:56;100195.94;;;9.14;100.00
42633;BME280;28261;53.304;-6.284;2024-02-16T03:24:59;100199.41;;;9.15;100.00
42633;BME280;28261;53.304;-6.284;2024-02-16T03:27:03;100208.06;;;9.17;100.00
42633;BME280;28261;53.304;-6.284;2024-02-16T03:29:08;100206.28;;;9.18;100.00
42633;BME280;28261;53.304;-6.284;2024-02-16T03:31:16;100210.00;;;9.15;100.00
42633;BME280;28261;53.304;-6.284;2024-02-16T03:33:20;100210.94;;;9.14;100.00
42633;BME280;28261;53.304;-6.284;2024-02-16T03:35:24;100216.13;;;9.15;100.00
42633;BME280;28261;53.304;-6.284;2024-02-16T03:37:29;100211.06;;;9.12;100.00
42633;BME280;28261;53.304;-6.284;2024-02-16T03:39:32;100228.72;;;9.12;100.00
42633;BME280;28261;53.304;-6.284;2024-02-16T03:41:36;100219.94;;;9.11;100.00
42633;BME280;28261;53.304;-6.284;2024-02-16T03:43:39;100213.03;;;9.09;100.00
42633;BME280;28261;53.304;-6.284;2024-02-16T03:45:44;100227.13;;;9.09;100.00
42633;BME280;28261;53.304;-6.284;2024-02-16T03:47:48;100229.78;;;9.09;100.00
42633;BME280;28261;53.304;-6.284;2024-02-16T03:49:54;100230.72;;;9.08;100.00
42633;BME280;28261;53.304;-6.284;2024-02-16T03:51:58;100235.06;;;9.09;100.00
42633;BME280;28261;53.304;-6.284;2024-02-16T03:54:02;100236.00;;;9.08;100.00
42633;BME280;28261;53.304;-6.284;2024-02-16T03:56:06;100233.38;;;9.08;100.00
42633;BME280;28261;53.304;-6.284;2024-02-16T03:58:10;100234.19;;;9.09;100.00
42633;BME280;28261;53.304;-6.284;2024-02-16T04:00:14;100238.66;;;9.08;100.00
42633;BME280;28261;53.304;-6.284;2024-02-16T04:02:19;100230.84;;;9.07;100.00
42633;BME280;28261;53.304;-6.284;2024-02-16T04:04:23;100231.78;;;9.06;100.00
42633;BME280;28261;53.304;-6.284;2024-02-16T04:06:25;100247.63;;;9.06;100.00
42633;BME280;28261;53.304;-6.284;2024-02-16T04:08:29;100235.28;;;9.06;100.00
42633;BME280;28261;53.304;-6.284;2024-02-16T04:10:33;100242.47;;;9.04;100.00
42633;BME280;28261;53.304;-6.284;2024-02-16T04:12:37;100245.22;;;9.03;100.00
42633;BME280;28261;53.304;-6.284;2024-02-16T04:14:41;100242.56;;;9.03;100.00
42633;BME280;28261;53.304;-6.284;2024-02-16T04:17:05;100238.34;;;9.00;100.00
42633;BME280;28261;53.304;-6.284;2024-02-16T04:19:10;100243.72;;;8.98;100.00
42633;BME280;28261;53.304;-6.284;2024-02-16T04:21:14;100248.19;;;8.98;100.00
42633;BME280;28261;53.304;-6.284;2024-02-16T04:23:18;100240.34;;;8.96;100.00
42633;BME280;28261;53.304;-6.284;2024-02-16T04:25:22;100248.19;;;8.98;100.00
42633;BME280;28261;53.304;-6.284;2024-02-16T04:27:25;100254.41;;;8.97;100.00
42633;BME280;28261;53.304;-6.284;2024-02-16T04:29:29;100259.69;;;8.97;100.00
42633;BME280;28261;53.304;-6.284;2024-02-16T04:31:32;100248.47;;;8.93;100.00
42633;BME280;28261;53.304;-6.284;2024-02-16T04:33:36;100254.53;;;8.95;100.00
42633;BME280;28261;53.304;-6.284;2024-02-16T04:35:41;100258.00;;;8.96;100.00
42633;BME280;28261;53.304;-6.284;2024-02-16T04:37:48;100259.69;;;8.97;100.00
42633;BME280;28261;53.304;-6.284;2024-02-16T04:39:52;100263.28;;;8.96;100.00
42633;BME280;28261;53.304;-6.284;2024-02-16T04:41:56;100259.16;;;8.92;100.00
42633;BME280;28261;53.304;-6.284;2024-02-16T04:43:59;100266.25;;;8.91;100.00
42633;BME280;28261;53.304;-6.284;2024-02-16T04:46:03;100265.50;;;8.89;100.00
42633;BME280;28261;53.304;-6.284;2024-02-16T04:48:07;100265.59;;;8.88;100.00
42633;BME280;28261;53.304;-6.284;2024-02-16T04:50:11;100262.97;;;8.88;100.00
42633;BME280;28261;53.304;-6.284;2024-02-16T04:52:17;100267.50;;;8.86;100.00
42633;BME280;28261;53.304;-6.284;2024-02-16T04:54:19;100270.25;;;8.84;100.00
42633;BME280;28261;53.304;-6.284;2024-02-16T04:56:23;100264.94;;;8.84;100.00
42633;BME280;28261;53.304;-6.284;2024-02-16T04:58:26;100269.41;;;8.84;100.00
42633;BME280;28261;53.304;-6.284;2024-02-16T05:00:30;100270.34;;;8.83;100.00
42633;BME280;28261;53.304;-6.284;2024-02-16T05:02:33;100273.84;;;8.83;100.00
42633;BME280;28261;53.304;-6.284;2024-02-16T05:04:37;100281.78;;;8.83;100.00
42633;BME280;28261;53.304;-6.284;2024-02-16T05:06:40;100291.50;;;8.83;100.00
42633;BME280;28261;53.304;-6.284;2024-02-16T05:08:45;100296.66;;;8.84;100.00
42633;BME280;28261;53.304;-6.284;2024-02-16T05:10:49;100302.06;;;8.83;100.00
42633;BME280;28261;53.304;-6.284;2024-02-16T05:12:52;100299.53;;;8.81;100.00
42633;BME280;28261;53.304;-6.284;2024-02-16T05:14:56;100309.38;;;8.79;100.00
42633;BME280;28261;53.304;-6.284;2024-02-16T05:16:59;100301.72;;;8.74;100.00
42633;BME280;28261;53.304;-6.284;2024-02-16T05:19:03;100304.38;;;8.74;100.00
42633;BME280;28261;53.304;-6.284;2024-02-16T05:21:07;100301.84;;;8.73;100.00
42633;BME280;28261;53.304;-6.284;2024-02-16T05:23:12;100308.94;;;8.72;100.00
42633;BME280;28261;53.304;-6.284;2024-02-16T05:25:17;100311.69;;;8.71;100.00
42633;BME280;28261;53.304;-6.284;2024-02-16T05:27:21;100314.38;;;8.69;100.00
42633;BME280;28261;53.304;-6.284;2024-02-16T05:29:26;100316.31;;;8.67;100.00
42633;BME280;28261;53.304;-6.284;2024-02-16T05:31:30;100317.34;;;8.64;100.00
42633;BME280;28261;53.304;-6.284;2024-02-16T05:33:33;100316.50;;;8.64;100.00
42633;BME280;28261;53.304;-6.284;2024-02-16T05:35:37;100328.13;;;8.61;100.00
42633;BME280;28261;53.304;-6.284;2024-02-16T05:37:43;100325.47;;;8.61;100.00
42633;BME280;28261;53.304;-6.284;2024-02-16T05:39:49;100331.72;;;8.60;100.00
42633;BME280;28261;53.304;-6.284;2024-02-16T05:42:01;100330.88;;;8.60;100.00
42633;BME280;28261;53.304;-6.284;2024-02-16T05:44:05;100333.63;;;8.58;100.00
42633;BME280;28261;53.304;-6.284;2024-02-16T05:46:12;100339.06;;;8.55;100.00
42633;BME280;28261;53.304;-6.284;2024-02-16T05:48:16;100346.16;;;8.55;100.00
42633;BME280;28261;53.304;-6.284;2024-02-16T05:50:20;100344.47;;;8.54;100.00
42633;BME280;28261;53.304;-6.284;2024-02-16T05:52:25;100352.38;;;8.54;100.00
42633;BME280;28261;53.304;-6.284;2024-02-16T05:54:27;100356.72;;;8.55;100.00
42633;BME280;28261;53.304;-6.284;2024-02-16T05:56:31;100355.78;;;8.56;100.00
42633;BME280;28261;53.304;-6.284;2024-02-16T05:58:37;100355.78;;;8.56;100.00
42633;BME280;28261;53.304;-6.284;2024-02-16T06:00:40;100359.16;;;8.58;100.00
42633;BME280;28261;53.304;-6.284;2024-02-16T06:02:44;100352.94;;;8.59;100.00
42633;BME280;28261;53.304;-6.284;2024-02-16T06:04:48;100364.47;;;8.58;100.00
42633;BME280;28261;53.304;-6.284;2024-02-16T06:06:52;100362.75;;;8.57;100.00
42633;BME280;28261;53.304;-6.284;2024-02-16T06:08:56;100359.28;;;8.56;100.00
42633;BME280;28261;53.304;-6.284;2024-02-16T06:10:59;100363.72;;;8.56;100.00
42633;BME280;28261;53.304;-6.284;2024-02-16T06:13:04;100369.94;;;8.55;100.00
42633;BME280;28261;53.304;-6.284;2024-02-16T06:15:09;100363.78;;;8.54;100.00
42633;BME280;28261;53.304;-6.284;2024-02-16T06:17:13;100364.88;;;8.52;100.00
42633;BME280;28261;53.304;-6.284;2024-02-16T06:19:17;100364.09;;;8.50;100.00
42633;BME280;28261;53.304;-6.284;2024-02-16T06:21:19;100369.50;;;8.48;100.00
42633;BME280;28261;53.304;-6.284;2024-02-16T06:23:23;100375.59;;;8.49;100.00
42633;BME280;28261;53.304;-6.284;2024-02-16T06:25:27;100371.19;;;8.49;100.00
42633;BME280;28261;53.304;-6.284;2024-02-16T06:27:30;100374.56;;;8.51;100.00
42633;BME280;28261;53.304;-6.284;2024-02-16T06:29:34;100374.34;;;8.54;100.00
42633;BME280;28261;53.304;-6.284;2024-02-16T06:31:39;100382.22;;;8.56;100.00
42633;BME280;28261;53.304;-6.284;2024-02-16T06:33:42;100385.59;;;8.58;100.00
42633;BME280;28261;53.304;-6.284;2024-02-16T06:35:46;100382.00;;;8.59;100.00
42633;BME280;28261;53.304;-6.284;2024-02-16T06:37:50;100382.00;;;8.59;100.00
42633;BME280;28261;53.304;-6.284;2024-02-16T06:39:54;100381.19;;;8.58;100.00
42633;BME280;28261;53.304;-6.284;2024-02-16T06:41:57;100382.00;;;8.59;100.00
42633;BME280;28261;53.304;-6.284;2024-02-16T06:44:00;100398.81;;;8.58;100.00
42633;BME280;28261;53.304;-6.284;2024-02-16T06:46:03;100385.59;;;8.58;100.00
42633;BME280;28261;53.304;-6.284;2024-02-16T06:48:08;100389.09;;;8.58;100.00
42633;BME280;28261;53.304;-6.284;2024-02-16T06:50:11;100389.09;;;8.58;100.00
42633;BME280;28261;53.304;-6.284;2024-02-16T06:52:15;100399.66;;;8.58;100.00
42633;BME280;28261;53.304;-6.284;2024-02-16T06:54:20;100394.47;;;8.57;100.00
42633;BME280;28261;53.304;-6.284;2024-02-16T06:56:23;100403.16;;;8.59;100.00
42633;BME280;28261;53.304;-6.284;2024-02-16T06:58:27;100401.44;;;8.58;100.00
42633;BME280;28261;53.304;-6.284;2024-02-16T07:00:31;100410.31;;;8.57;100.00
42633;BME280;28261;53.304;-6.284;2024-02-16T07:02:34;100411.28;;;8.56;100.00
42633;BME280;28261;53.304;-6.284;2024-02-16T07:04:40;100413.91;;;8.56;100.00
42633;BME280;28261;53.304;-6.284;2024-02-16T07:06:44;100425.44;;;8.55;100.00
42633;BME280;28261;53.304;-6.284;2024-02-16T07:08:48;100424.66;;;8.53;100.00
42633;BME280;28261;53.304;-6.284;2024-02-16T07:10:51;100424.75;;;8.51;100.00
42633;BME280;28261;53.304;-6.284;2024-02-16T07:12:55;100428.34;;;8.50;100.00
42633;BME280;28261;53.304;-6.284;2024-02-16T07:14:58;100431.84;;;8.51;100.00
42633;BME280;28261;53.304;-6.284;2024-02-16T07:17:01;100433.72;;;8.49;100.00
42633;BME280;28261;53.304;-6.284;2024-02-16T07:19:05;100437.13;;;8.51;100.00
42633;BME280;28261;53.304;-6.284;2024-02-16T07:21:10;100434.50;;;8.51;100.00
42633;BME280;28261;53.304;-6.284;2024-02-16T07:23:14;100442.41;;;8.51;100.00
42633;BME280;28261;53.304;-6.284;2024-02-16T07:25:17;100449.41;;;8.52;100.00
42633;BME280;28261;53.304;-6.284;2024-02-16T07:27:21;100444.84;;;8.54;100.00
42633;BME280;28261;53.304;-6.284;2024-02-16T07:29:24;100441.38;;;8.53;100.00
42633;BME280;28261;53.304;-6.284;2024-02-16T07:31:32;100452.78;;;8.54;100.00
42633;BME280;28261;53.304;-6.284;2024-02-16T07:33:36;100459.00;;;8.53;100.00
42633;BME280;28261;53.304;-6.284;2024-02-16T07:35:40;100460.81;;;8.52;100.00
42633;BME280;28261;53.304;-6.284;2024-02-16T07:37:44;100467.03;;;8.51;100.00
42633;BME280;28261;53.304;-6.284;2024-02-16T07:39:48;100466.09;;;8.52;100.00
42633;BME280;28261;53.304;-6.284;2024-02-16T07:41:51;100476.66;;;8.52;100.00
42633;BME280;28261;53.304;-6.284;2024-02-16T07:43:55;100474.84;;;8.53;100.00
42633;BME280;28261;53.304;-6.284;2024-02-16T07:45:58;100480.91;;;8.55;100.00
42633;BME280;28261;53.304;-6.284;2024-02-16T07:48:02;100488.75;;;8.56;100.00
42633;BME280;28261;53.304;-6.284;2024-02-16T07:50:08;100480.91;;;8.55;100.00
42633;BME280;28261;53.304;-6.284;2024-02-16T07:52:12;100484.50;;;8.54;100.00
42633;BME280;28261;53.304;-6.284;2024-02-16T07:54:16;100489.03;;;8.52;100.00
42633;BME280;28261;53.304;-6.284;2024-02-16T07:56:20;100494.38;;;8.50;100.00
42633;BME280;28261;53.304;-6.284;2024-02-16T07:58:24;100497.03;;;8.50;100.00
42633;BME280;28261;53.304;-6.284;2024-02-16T08:00:26;100500.53;;;8.51;100.00
42633;BME280;28261;53.304;-6.284;2024-02-16T08:02:31;100497.13;;;8.49;100.00
42633;BME280;28261;53.304;-6.284;2024-02-16T08:04:33;100504.03;;;8.51;100.00
42633;BME280;28261;53.304;-6.284;2024-02-16T08:06:37;100505.81;;;8.51;100.00
42633;BME280;28261;53.304;-6.284;2024-02-16T08:08:40;100511.94;;;8.51;100.00
42633;BME280;28261;53.304;-6.284;2024-02-16T08:10:45;100510.25;;;8.50;100.00
42633;BME280;28261;53.304;-6.284;2024-02-16T08:12:52;100518.09;;;8.52;100.00
42633;BME280;28261;53.304;-6.284;2024-02-16T08:14:55;100524.13;;;8.54;100.00
42633;BME280;28261;53.304;-6.284;2024-02-16T08:17:01;100526.56;;;8.57;100.00
42633;BME280;28261;53.304;-6.284;2024-02-16T08:19:16;100535.25;;;8.59;100.00
42633;BME280;28261;53.304;-6.284;2024-02-16T08:21:20;100532.63;;;8.59;100.00
42633;BME280;28261;53.304;-6.284;2024-02-16T08:23:24;100540.34;;;8.62;100.00
42633;BME280;28261;53.304;-6.284;2024-02-16T08:25:27;100535.94;;;8.62;100.00
42633;BME280;28261;53.304;-6.284;2024-02-16T08:27:34;100540.34;;;8.62;100.00
42633;BME280;28261;53.304;-6.284;2024-02-16T08:29:37;100535.06;;;8.62;100.00
42633;BME280;28261;53.304;-6.284;2024-02-16T08:31:41;100545.63;;;8.62;100.00
42633;BME280;28261;53.304;-6.284;2024-02-16T08:33:46;100550.19;;;8.60;100.00
42633;BME280;28261;53.304;-6.284;2024-02-16T08:35:50;100556.19;;;8.62;100.00
42633;BME280;28261;53.304;-6.284;2024-02-16T08:37:54;100550.91;;;8.62;100.00
42633;BME280;28261;53.304;-6.284;2024-02-16T08:39:57;100552.63;;;8.63;100.00
42633;BME280;28261;53.304;-6.284;2024-02-16T08:42:00;100563.19;;;8.63;100.00
42633;BME280;28261;53.304;-6.284;2024-02-16T08:44:06;100562.34;;;8.62;100.00
42633;BME280;28261;53.304;-6.284;2024-02-16T08:46:11;100562.34;;;8.62;100.00
42633;BME280;28261;53.304;-6.284;2024-02-16T08:48:15;100564.91;;;8.64;100.00
42633;BME280;28261;53.304;-6.284;2024-02-16T08:50:18;100582.44;;;8.65;100.00
42633;BME280;28261;53.304;-6.284;2024-02-16T08:52:21;100577.16;;;8.65;100.00
42633;BME280;28261;53.304;-6.284;2024-02-16T08:54:25;100593.69;;;8.69;100.00
42633;BME280;28261;53.304;-6.284;2024-02-16T08:56:29;100581.22;;;8.71;100.00
42633;BME280;28261;53.304;-6.284;2024-02-16T08:58:32;100590.66;;;8.75;100.00
42633;BME280;28261;53.304;-6.284;2024-02-16T09:00:37;100592.06;;;8.80;100.00
42633;BME280;28261;53.304;-6.284;2024-02-16T09:02:41;100603.19;;;8.86;100.00
42633;BME280;28261;53.304;-6.284;2024-02-16T09:04:45;100605.47;;;8.92;100.00
42633;BME280;28261;53.304;-6.284;2024-02-16T09:06:49;100608.50;;;9.00;100.00
42633;BME280;28261;53.304;-6.284;2024-02-16T09:08:53;100611.50;;;9.08;100.00
42633;BME280;28261;53.304;-6.284;2024-02-16T09:10:56;100621.41;;;9.19;100.00
42633;BME280;28261;53.304;-6.284;2024-02-16T09:13:00;100622.22;;;9.34;100.00
42633;BME280;28261;53.304;-6.284;2024-02-16T09:15:04;100624.94;;;9.47;100.00
42633;BME280;28261;53.304;-6.284;2024-02-16T09:17:09;100624.81;;;9.63;100.00
42633;BME280;28261;53.304;-6.284;2024-02-16T09:19:12;100622.84;;;9.79;100.00
42633;BME280;28261;53.304;-6.284;2024-02-16T09:21:16;100629.88;;;9.93;100.00
42633;BME280;28261;53.304;-6.284;2024-02-16T09:23:20;100637.13;;;10.04;100.00
42633;BME280;28261;53.304;-6.284;2024-02-16T09:25:24;100640.66;;;10.18;100.00
42633;BME280;28261;53.304;-6.284;2024-02-16T09:27:28;100638.59;;;10.36;100.00
42633;BME280;28261;53.304;-6.284;2024-02-16T09:29:37;100643.94;;;10.48;100.00
42633;BME280;28261;53.304;-6.284;2024-02-16T09:31:41;100648.41;;;10.61;100.00
42633;BME280;28261;53.304;-6.284;2024-02-16T09:33:47;100645.97;;;10.71;100.00
42633;BME280;28261;53.304;-6.284;2024-02-16T09:35:51;100657.28;;;10.73;100.00
42633;BME280;28261;53.304;-6.284;2024-02-16T09:37:54;100654.88;;;10.70;100.00
42633;BME280;28261;53.304;-6.284;2024-02-16T09:39:59;100666.31;;;10.70;100.00
42633;BME280;28261;53.304;-6.284;2024-02-16T09:42:04;100672.38;;;10.72;100.00
42633;BME280;28261;53.304;-6.284;2024-02-16T09:44:08;100672.69;;;10.80;100.00
42633;BME280;28261;53.304;-6.284;2024-02-16T09:46:13;100680.31;;;10.85;100.00
42633;BME280;28261;53.304;-6.284;2024-02-16T09:48:18;100687.22;;;10.88;100.00
42633;BME280;28261;53.304;-6.284;2024-02-16T09:50:24;100687.53;;;10.96;100.00
42633;BME280;28261;53.304;-6.284;2024-02-16T09:52:29;100682.44;;;11.06;100.00
42633;BME280;28261;53.304;-6.284;2024-02-16T09:54:34;100677.75;;;11.09;100.00
42633;BME280;28261;53.304;-6.284;2024-02-16T09:56:38;100689.78;;;11.02;100.00
42633;BME280;28261;53.304;-6.284;2024-02-16T09:58:42;100694.97;;;11.04;100.00
42633;BME280;28261;53.304;-6.284;2024-02-16T10:00:50;100693.16;;;11.04;100.00
42633;BME280;28261;53.304;-6.284;2024-02-16T10:02:54;100698.91;;;10.98;100.00
42633;BME280;28261;53.304;-6.284;2024-02-16T10:04:58;100699.50;;;11.01;100.00
42633;BME280;28261;53.304;-6.284;2024-02-16T10:07:04;100701.34;;;11.01;100.00
42633;BME280;28261;53.304;-6.284;2024-02-16T10:09:22;100706.63;;;11.01;100.00
42633;BME280;28261;53.304;-6.284;2024-02-16T10:11:26;100708.13;;;11.05;100.00
42633;BME280;28261;53.304;-6.284;2024-02-16T10:13:31;100715.34;;;11.16;100.00
42633;BME280;28261;53.304;-6.284;2024-02-16T10:15:35;100720.94;;;11.24;100.00
42633;BME280;28261;53.304;-6.284;2024-02-16T10:17:39;100715.31;;;11.29;100.00
42633;BME280;28261;53.304;-6.284;2024-02-16T10:19:44;100725.94;;;11.29;100.00
42633;BME280;28261;53.304;-6.284;2024-02-16T10:21:48;100734.41;;;11.34;100.00
42633;BME280;28261;53.304;-6.284;2024-02-16T10:23:59;100733.56;;;11.46;100.00
42633;BME280;28261;53.304;-6.284;2024-02-16T10:26:04;100735.91;;;11.51;100.00
42633;BME280;28261;53.304;-6.284;2024-02-16T10:28:09;100742.59;;;11.57;100.00
42633;BME280;28261;53.304;-6.284;2024-02-16T10:30:15;100746.06;;;11.57;100.00
42633;BME280;28261;53.304;-6.284;2024-02-16T10:32:20;100756.03;;;11.54;100.00
42633;BME280;28261;53.304;-6.284;2024-02-16T10:34:26;100754.56;;;11.49;100.00
42633;BME280;28261;53.304;-6.284;2024-02-16T10:36:32;100764.13;;;11.52;100.00
42633;BME280;28261;53.304;-6.284;2024-02-16T10:38:37;100770.84;;;11.58;100.00
42633;BME280;28261;53.304;-6.284;2024-02-16T10:40:43;100765.59;;;11.56;100.00